createdAt,value
2023-12-11T00:00:53.572Z,6.90
2023-12-11T00:03:42.853Z,7.70
2023-12-11T00:06:14.519Z,7.10
2023-12-11T00:08:45.589Z,6.90
2023-12-11T00:13:46.018Z,6.50
2023-12-11T00:18:47.462Z,6.90
2023-12-11T00:21:18.726Z,6.80
2023-12-11T00:23:49.955Z,6.60
2023-12-11T00:28:50.522Z,5.90
2023-12-11T00:33:51.399Z,5.70
2023-12-11T00:36:22.697Z,6.50
2023-12-11T00:38:53.901Z,6.40
2023-12-11T00:43:54.326Z,5.80
2023-12-11T00:48:55.241Z,6.30
2023-12-11T00:51:26.402Z,5.60
2023-12-11T00:53:58.473Z,6.00
2023-12-11T00:58:58.940Z,5.20
2023-12-11T01:03:59.722Z,5.50
2023-12-11T01:06:30.843Z,6.60
2023-12-11T01:11:31.949Z,5.60
2023-12-11T01:14:03.118Z,5.80
2023-12-11T01:19:03.789Z,5.20
2023-12-11T01:21:35.006Z,5.20
2023-12-11T01:26:37.128Z,6.20
2023-12-11T01:31:37.634Z,5.10
2023-12-11T01:34:09.009Z,6.40
2023-12-11T01:36:40.277Z,4.20
2023-12-11T01:39:12.083Z,5.10
2023-12-11T01:41:43.152Z,4.40
2023-12-11T01:46:44.262Z,4.50
2023-12-11T01:49:15.516Z,4.50
2023-12-11T01:51:47.890Z,5.50
2023-12-11T01:54:19.172Z,5.10
2023-12-11T01:56:50.336Z,4.70
2023-12-11T02:01:52.843Z,4.20
2023-12-11T02:04:24.270Z,4.20
2023-12-11T02:06:55.389Z,4.20
2023-12-11T02:11:56.170Z,4.70
2023-12-11T02:14:27.260Z,4.10
2023-12-11T02:19:28.907Z,4.30
2023-12-11T02:22:00.216Z,4.00
2023-12-11T02:24:40.780Z,4.20
2023-12-11T02:27:12.154Z,4.30
2023-12-11T02:32:16.057Z,3.60
2023-12-11T02:34:47.314Z,3.90
2023-12-11T02:37:18.529Z,3.10
2023-12-11T02:42:19.362Z,3.70
2023-12-11T02:47:19.862Z,3.10
2023-12-11T02:52:20.982Z,4.00
2023-12-11T02:54:52.181Z,4.20
2023-12-11T02:57:23.358Z,3.90
2023-12-11T02:59:54.792Z,3.10
2023-12-11T03:02:25.849Z,3.70
2023-12-11T03:07:26.440Z,4.20
2023-12-11T03:09:57.599Z,3.60
2023-12-11T03:14:58.056Z,3.20
2023-12-11T03:19:59.079Z,3.20
2023-12-11T03:22:30.599Z,3.80
2023-12-11T03:25:01.746Z,3.90
2023-12-11T03:27:33.296Z,3.30
2023-12-11T03:30:05.087Z,3.50
2023-12-11T03:32:37.274Z,3.50
2023-12-11T03:35:09.340Z,4.30
2023-12-11T03:37:40.421Z,4.50
2023-12-11T03:40:13.454Z,4.80
2023-12-11T03:42:47.212Z,6.00
2023-12-11T03:45:18.799Z,8.60
2023-12-11T03:47:50.284Z,7.40
2023-12-11T03:50:21.723Z,5.70
2023-12-11T03:52:54.281Z,5.40
2023-12-11T03:55:31.883Z,4.70
2023-12-11T03:58:03.185Z,4.10
2023-12-11T04:00:34.475Z,3.30
2023-12-11T04:03:08.425Z,3.30
2023-12-11T04:05:39.613Z,3.70
2023-12-11T04:08:10.688Z,5.00
2023-12-11T04:13:11.172Z,4.00
2023-12-11T04:18:11.815Z,3.60
2023-12-11T04:23:12.387Z,3.50
2023-12-11T04:28:12.883Z,3.20
2023-12-11T04:33:13.492Z,3.00
2023-12-11T04:35:45.191Z,2.90
2023-12-11T04:38:16.275Z,4.60
2023-12-11T04:43:16.769Z,3.20
2023-12-11T04:48:18.322Z,2.50
2023-12-11T04:50:49.774Z,2.20
2023-12-11T04:53:20.890Z,2.70
2023-12-11T04:58:21.648Z,2.90
2023-12-11T05:00:52.825Z,3.30
2023-12-11T05:05:53.359Z,3.50
2023-12-11T05:10:55.249Z,2.60
2023-12-11T05:15:55.743Z,2.80
2023-12-11T05:18:27.222Z,3.20
2023-12-11T05:23:27.829Z,2.90
2023-12-11T05:28:28.269Z,2.90
2023-12-11T05:33:29.028Z,3.30
2023-12-11T05:36:00.175Z,2.90
2023-12-11T05:41:01.334Z,4.10
2023-12-11T05:43:32.437Z,3.20
2023-12-11T05:48:33.104Z,3.40
2023-12-11T05:51:04.661Z,2.90
2023-12-11T05:53:35.708Z,3.00
2023-12-11T05:58:37.433Z,3.50
2023-12-11T06:01:08.896Z,3.20
2023-12-11T06:03:40.162Z,3.10
2023-12-11T06:08:47.621Z,3.40
2023-12-11T06:13:48.226Z,3.30
2023-12-11T06:16:20.838Z,3.10
2023-12-11T06:18:52.123Z,3.10
2023-12-11T06:21:23.799Z,2.70
2023-12-11T06:23:54.889Z,4.10
2023-12-11T06:28:59.831Z,2.40
2023-12-11T06:31:31.603Z,2.70
2023-12-11T06:34:04.115Z,2.90
2023-12-11T06:36:35.466Z,2.20
2023-12-11T06:39:06.725Z,2.20
2023-12-11T06:41:39.195Z,2.20
2023-12-11T06:44:13.011Z,2.20
2023-12-11T06:49:17.623Z,2.80
2023-12-11T06:51:51.605Z,3.40
2023-12-11T06:54:44.236Z,2.80
2023-12-11T06:57:15.450Z,3.40
2023-12-11T06:59:46.505Z,3.30
2023-12-11T07:02:17.911Z,3.50
2023-12-11T07:04:49.232Z,3.30
2023-12-11T07:07:20.537Z,3.60
2023-12-11T07:09:52.015Z,4.20
2023-12-11T07:12:23.377Z,3.50
2023-12-11T07:14:54.508Z,4.00
2023-12-11T07:19:55.128Z,2.80
2023-12-11T07:22:26.295Z,3.20
2023-12-11T07:24:57.471Z,3.60
2023-12-11T07:27:30.296Z,3.60
2023-12-11T07:30:01.629Z,3.30
2023-12-11T07:32:32.900Z,3.30
2023-12-11T07:37:33.750Z,3.20
2023-12-11T07:40:07.582Z,2.70
2023-12-11T07:42:38.908Z,3.60
2023-12-11T07:45:12.648Z,5.20
2023-12-11T07:47:43.864Z,4.10
2023-12-11T07:50:15.133Z,3.50
2023-12-11T07:52:46.349Z,4.50
2023-12-11T07:55:17.685Z,3.40
2023-12-11T07:57:49.195Z,3.80
2023-12-11T08:00:22.700Z,4.30
2023-12-11T08:03:29.340Z,3.30
2023-12-11T08:07:07.256Z,3.20
2023-12-11T08:09:40.437Z,4.10
2023-12-11T08:12:11.622Z,3.40
2023-12-11T08:14:42.895Z,3.60
2023-12-11T08:17:14.624Z,3.90
2023-12-11T08:19:45.890Z,3.50
2023-12-11T08:22:17.101Z,4.10
2023-12-11T08:24:48.325Z,4.10
2023-12-11T08:27:19.641Z,4.00
2023-12-11T08:29:51.199Z,3.70
2023-12-11T08:32:22.893Z,3.70
2023-12-11T08:34:54.507Z,3.30
2023-12-11T08:37:25.655Z,3.50
2023-12-11T08:39:57.099Z,3.40
2023-12-11T08:42:28.663Z,3.30
2023-12-11T08:44:59.854Z,3.30
2023-12-11T08:47:32.563Z,3.70
2023-12-11T08:50:07.207Z,3.80
2023-12-11T08:52:38.826Z,3.80
2023-12-11T08:55:11.258Z,4.00
2023-12-11T08:57:44.218Z,3.30
2023-12-11T09:00:17.252Z,4.10
2023-12-11T09:02:48.462Z,3.70
2023-12-11T09:05:20.137Z,3.80
2023-12-11T09:07:52.286Z,3.70
2023-12-11T09:10:23.922Z,4.60
2023-12-11T09:12:56.956Z,4.30
2023-12-11T09:15:28.314Z,3.60
2023-12-11T09:17:59.414Z,3.90
2023-12-11T09:20:30.843Z,4.70
2023-12-11T09:23:02.026Z,4.20
2023-12-11T09:28:02.906Z,3.60
2023-12-11T09:30:34.081Z,3.20
2023-12-11T09:33:07.903Z,4.90
2023-12-11T09:35:40.732Z,3.90
2023-12-11T09:38:11.887Z,4.60
2023-12-11T09:40:44.734Z,4.40
2023-12-11T09:43:18.445Z,4.00
2023-12-11T09:45:52.281Z,4.30
2023-12-11T09:48:23.590Z,5.00
2023-12-11T09:50:54.805Z,5.10
2023-12-11T09:53:26.279Z,5.10
2023-12-11T09:55:58.433Z,5.00
2023-12-11T09:58:29.610Z,5.10
2023-12-11T10:01:01.090Z,4.90
2023-12-11T10:03:32.896Z,3.90
2023-12-11T10:06:04.285Z,3.60
2023-12-11T10:08:42.413Z,4.10
2023-12-11T10:11:15.290Z,3.50
2023-12-11T10:13:47.098Z,4.00
2023-12-11T10:16:32.865Z,3.50
2023-12-11T10:19:04.432Z,3.70
2023-12-11T10:21:40.856Z,4.20
2023-12-11T10:24:13.853Z,3.80
2023-12-11T10:26:55.329Z,5.20
2023-12-11T10:29:27.466Z,6.20
2023-12-11T10:32:04.618Z,5.70
2023-12-11T10:34:45.807Z,6.10
2023-12-11T10:37:17.721Z,4.40
2023-12-11T10:39:58.874Z,4.20
2023-12-11T10:42:30.280Z,4.40
2023-12-11T10:45:03.148Z,3.10
2023-12-11T10:47:35.164Z,3.40
2023-12-11T10:50:09.082Z,3.50
2023-12-11T10:52:42.576Z,2.90
2023-12-11T10:55:14.565Z,4.20
2023-12-11T10:57:46.839Z,3.80
2023-12-11T11:00:20.000Z,3.60
2023-12-11T11:02:55.663Z,3.70
2023-12-11T11:05:29.254Z,3.40
2023-12-11T11:08:10.261Z,4.00
2023-12-11T11:10:50.620Z,2.90
2023-12-11T11:13:24.573Z,3.80
2023-12-11T11:15:56.132Z,3.80
2023-12-11T11:18:52.826Z,4.30
2023-12-11T11:21:24.103Z,3.20
2023-12-11T11:23:55.226Z,3.60
2023-12-11T11:26:36.214Z,3.80
2023-12-11T11:29:07.709Z,4.10
2023-12-11T11:31:53.162Z,3.90
2023-12-11T11:34:46.500Z,4.10
2023-12-11T11:42:32.041Z,3.90
2023-12-11T11:45:05.401Z,2.90
2023-12-11T11:47:37.354Z,2.90
2023-12-11T11:50:12.497Z,3.50
2023-12-11T11:52:43.981Z,4.20
2023-12-11T11:55:29.214Z,3.20
2023-12-11T11:58:21.225Z,3.50
2023-12-11T12:01:03.295Z,2.60
2023-12-11T12:03:43.338Z,2.50
2023-12-11T12:06:16.801Z,3.40
2023-12-11T12:08:48.125Z,3.70
2023-12-11T12:11:19.562Z,3.40
2023-12-11T12:13:50.794Z,3.80
2023-12-11T12:16:30.844Z,3.40
2023-12-11T12:19:02.268Z,3.50
2023-12-11T12:21:33.440Z,3.90
2023-12-11T12:24:06.837Z,3.80
2023-12-11T12:26:39.477Z,4.10
2023-12-11T12:29:11.038Z,4.60
2023-12-11T12:31:42.835Z,4.40
2023-12-11T12:34:18.827Z,4.00
2023-12-11T12:36:50.422Z,5.70
2023-12-11T12:39:22.210Z,5.60
2023-12-11T12:41:55.438Z,4.60
2023-12-11T12:44:26.748Z,3.50
2023-12-11T12:47:02.045Z,3.80
2023-12-11T12:49:33.740Z,4.40
2023-12-11T12:52:05.158Z,4.30
2023-12-11T12:54:51.629Z,4.40
2023-12-11T12:57:22.840Z,4.70
2023-12-11T12:59:55.605Z,4.10
2023-12-11T13:02:26.818Z,4.30
2023-12-11T13:04:58.575Z,4.40
2023-12-11T13:07:30.013Z,4.30
2023-12-11T13:10:10.480Z,4.50
2023-12-11T13:12:41.599Z,4.00
2023-12-11T13:17:42.325Z,4.00
2023-12-11T13:20:15.056Z,4.20
2023-12-11T13:22:46.196Z,4.20
2023-12-11T13:25:17.898Z,4.90
2023-12-11T13:27:49.247Z,4.50
2023-12-11T13:32:49.722Z,4.60
2023-12-11T13:35:21.617Z,4.40
2023-12-11T13:37:52.732Z,4.20
2023-12-11T13:40:24.483Z,4.70
2023-12-11T13:42:55.825Z,4.30
2023-12-11T13:45:27.019Z,4.10
2023-12-11T13:50:27.598Z,4.40
2023-12-11T13:52:58.812Z,4.20
2023-12-11T13:55:37.399Z,4.70
2023-12-11T13:58:08.558Z,5.10
2023-12-11T14:00:39.851Z,5.70
2023-12-11T14:03:11.198Z,5.70
2023-12-11T14:05:42.725Z,6.60
2023-12-11T14:08:13.968Z,6.40
2023-12-11T14:10:45.352Z,5.60
2023-12-11T14:13:16.480Z,5.80
2023-12-11T14:15:49.111Z,4.70
2023-12-11T14:18:20.176Z,3.90
2023-12-11T14:23:20.817Z,5.10
2023-12-11T14:28:21.280Z,6.00
2023-12-11T14:30:52.439Z,4.40
2023-12-11T14:35:53.312Z,4.10
2023-12-11T14:38:24.867Z,4.30
2023-12-11T14:40:55.961Z,4.40
2023-12-11T14:45:59.805Z,6.10
2023-12-11T14:48:30.816Z,4.90
2023-12-11T14:53:31.941Z,4.00
2023-12-11T14:56:04.262Z,4.40
2023-12-11T14:58:35.469Z,4.00
2023-12-11T15:01:07.197Z,3.90
2023-12-11T15:03:38.729Z,3.40
2023-12-11T15:06:11.202Z,4.10
2023-12-11T15:08:42.240Z,4.30
2023-12-11T15:13:42.681Z,5.00
2023-12-11T15:16:14.421Z,4.20
2023-12-11T15:18:46.795Z,4.70
2023-12-11T15:21:19.669Z,4.70
2023-12-11T15:23:50.687Z,5.20
2023-12-11T15:28:51.802Z,5.30
2023-12-11T15:31:26.597Z,5.60
2023-12-11T15:33:58.739Z,5.40
2023-12-11T15:36:29.924Z,5.90
2023-12-11T15:39:01.156Z,7.00
2023-12-11T15:44:01.739Z,12.40
2023-12-11T15:46:33.116Z,10.50
2023-12-11T15:49:04.288Z,9.10
2023-12-11T15:51:35.441Z,7.90
2023-12-11T15:54:08.548Z,6.80
2023-12-11T15:56:39.600Z,6.40
2023-12-11T16:01:40.215Z,8.40
2023-12-11T16:04:11.485Z,8.70
2023-12-11T16:06:44.096Z,10.60
2023-12-11T16:09:15.175Z,12.20
2023-12-11T16:11:47.814Z,12.70
2023-12-11T16:14:18.915Z,11.80
2023-12-11T16:19:30.182Z,9.60
2023-12-11T16:22:01.501Z,7.70
2023-12-11T16:24:32.657Z,6.40
2023-12-11T16:29:34.732Z,7.20
2023-12-11T16:32:08.039Z,7.10
2023-12-11T16:34:39.144Z,7.00
2023-12-11T16:37:11.063Z,7.00
2023-12-11T16:39:44.980Z,6.50
2023-12-11T16:42:16.158Z,5.80
2023-12-11T16:44:49.307Z,6.60
2023-12-11T16:47:21.541Z,7.40
2023-12-11T16:50:01.156Z,6.60
2023-12-11T16:52:38.442Z,6.90
2023-12-11T16:55:10.076Z,7.40
2023-12-11T16:57:41.298Z,6.20
2023-12-11T17:00:14.411Z,7.70
2023-12-11T17:02:45.716Z,7.10
2023-12-11T17:05:17.152Z,8.10
2023-12-11T17:07:48.421Z,8.20
2023-12-11T17:12:49.014Z,9.40
2023-12-11T17:15:20.839Z,10.30
2023-12-11T17:17:52.503Z,10.30
2023-12-11T17:20:23.708Z,9.30
2023-12-11T17:25:24.128Z,9.50
2023-12-11T17:27:55.898Z,10.80
2023-12-11T17:30:26.952Z,11.00
2023-12-11T17:35:27.610Z,9.30
2023-12-11T17:37:58.755Z,10.20
2023-12-11T17:43:01.930Z,10.90
2023-12-11T17:45:33.489Z,11.00
2023-12-11T17:48:05.257Z,11.80
2023-12-11T17:50:37.791Z,12.80
2023-12-11T17:53:09.406Z,12.90
2023-12-11T17:55:40.982Z,12.00
2023-12-11T17:58:20.288Z,12.40
2023-12-11T18:01:15.797Z,13.50
2023-12-11T18:04:06.603Z,12.60
2023-12-11T18:10:05.502Z,11.20
2023-12-11T18:13:01.390Z,11.80
2023-12-11T18:15:46.562Z,10.50
2023-12-11T18:18:17.774Z,9.70
2023-12-11T18:23:18.203Z,10.20
2023-12-11T18:28:21.066Z,9.80
2023-12-11T18:30:52.223Z,9.40
2023-12-11T18:33:24.673Z,9.60
2023-12-11T18:35:56.091Z,8.80
2023-12-11T18:38:27.181Z,8.60
2023-12-11T18:43:27.975Z,8.20
2023-12-11T18:45:59.152Z,8.90
2023-12-11T18:48:43.650Z,9.10
2023-12-11T18:54:54.446Z,9.00
2023-12-11T18:59:55.086Z,8.10
2023-12-11T19:02:27.149Z,8.90
2023-12-11T19:04:58.605Z,9.40
2023-12-11T19:07:30.102Z,9.40
2023-12-11T19:10:29.513Z,9.90
2023-12-11T19:12:53.424Z,9.70
2023-12-11T19:15:24.796Z,9.30
2023-12-11T19:17:56.036Z,9.80
2023-12-11T19:20:27.211Z,10.70
2023-12-11T19:25:27.912Z,13.10
2023-12-11T19:28:01.940Z,14.40
2023-12-11T19:30:34.219Z,12.50
2023-12-11T19:33:06.445Z,17.00
2023-12-11T19:35:38.127Z,17.20
2023-12-11T19:38:09.227Z,14.40
2023-12-11T19:43:14.548Z,13.70
2023-12-11T19:45:48.608Z,13.90
2023-12-11T19:48:20.252Z,14.30
2023-12-11T19:50:51.349Z,13.90
2023-12-11T19:55:51.718Z,13.90
2023-12-11T20:00:53.522Z,15.60
2023-12-11T20:03:25.352Z,17.50
2023-12-11T20:05:56.493Z,18.80
2023-12-11T20:08:27.734Z,19.70
2023-12-11T20:10:58.921Z,22.30
2023-12-11T20:16:00.268Z,26.20
2023-12-11T20:18:32.095Z,31.40
2023-12-11T20:21:05.437Z,30.00
2023-12-11T20:23:37.334Z,27.10
2023-12-11T20:26:10.135Z,24.80
2023-12-11T20:28:41.329Z,19.80
2023-12-11T20:33:49.652Z,19.20
2023-12-11T20:36:21.463Z,18.70
2023-12-11T20:38:52.508Z,17.10
2023-12-11T20:43:56.837Z,18.60
2023-12-11T20:46:28.209Z,19.50
2023-12-11T20:48:59.766Z,20.20
2023-12-11T20:51:31.058Z,22.10
2023-12-11T20:54:07.357Z,21.50
2023-12-11T20:57:15.910Z,22.90
2023-12-11T21:00:34.006Z,19.90
2023-12-11T21:04:35.436Z,18.20
2023-12-11T21:07:25.106Z,15.70
2023-12-11T21:09:32.796Z,14.10
2023-12-11T21:12:04.339Z,13.70
2023-12-11T21:14:35.352Z,12.30
2023-12-11T21:19:56.597Z,11.90
2023-12-11T21:25:41.237Z,13.70
2023-12-11T21:31:50.873Z,11.00
2023-12-11T21:34:57.748Z,11.70
2023-12-11T21:37:59.936Z,12.40
2023-12-11T21:40:31.143Z,11.00
2023-12-11T21:43:02.351Z,10.70
2023-12-11T21:45:33.559Z,9.00
2023-12-11T21:50:34.229Z,9.20
2023-12-11T21:53:05.401Z,9.50
2023-12-11T21:55:36.495Z,9.10
2023-12-11T22:00:38.644Z,9.20
2023-12-11T22:03:09.755Z,9.40
2023-12-11T22:05:40.943Z,9.70
2023-12-11T22:08:12.249Z,11.00
2023-12-11T22:10:48.393Z,11.20
2023-12-11T22:13:27.364Z,11.60
2023-12-11T22:15:59.148Z,12.00
2023-12-11T22:18:30.661Z,11.30
2023-12-11T22:21:02.327Z,10.10
2023-12-11T22:23:33.501Z,9.90
2023-12-11T22:28:34.273Z,9.10
2023-12-11T22:31:07.396Z,10.30
2023-12-11T22:33:38.631Z,8.90
2023-12-11T22:36:20.380Z,9.80
2023-12-11T22:38:51.432Z,7.10
2023-12-11T22:43:58.930Z,5.30
2023-12-11T22:46:30.397Z,6.90
2023-12-11T22:49:01.590Z,6.20
2023-12-11T22:51:32.891Z,5.50
2023-12-11T22:54:04.039Z,5.90
2023-12-11T22:56:35.129Z,8.20
2023-12-11T23:02:47.929Z,8.30
2023-12-11T23:05:19.790Z,8.30
2023-12-11T23:07:51.101Z,7.80
2023-12-11T23:12:53.567Z,7.50
2023-12-11T23:17:54.022Z,5.40
2023-12-11T23:22:55.105Z,3.60
2023-12-11T23:25:26.300Z,3.90
2023-12-11T23:27:57.443Z,4.20
2023-12-11T23:30:28.531Z,3.30
2023-12-11T23:35:29.472Z,2.40
2023-12-11T23:38:01.337Z,2.30
2023-12-11T23:40:32.464Z,2.20
2023-12-11T23:45:33.043Z,2.20
2023-12-11T23:50:33.690Z,2.10
2023-12-11T23:53:05.182Z,1.90
2023-12-11T23:55:36.574Z,1.90
2023-12-11T23:58:07.903Z,1.80
